Nathalie — OJLP — position and weather

sailwx.info

Track history (hours):
 
Tides and Currents Weather Stations Pressure Air Temp Water Temp Dewpoint Dewpoint Depression Visibility Wind Speed Wind Dir Waves Ship Positions

Nathalie

Last reported at 2015-Jul-07 04:32 UTC. Time now 2015-Jul-07 19:48 UTC.
Position N 55°58' E 012°01'.

Length 64 m; draft 2.2 m.

Type: Cargo ship. MMSI: 230987660.

Date/timePositionNaut miles runAvg speedWind from/ knotsBaromVisibWave heightAir tempDewpointWater temp
2015-Jul-07 04:32N 55°58' E 012°01'15 3.6
2015-Jul-07 00:28N 56°10' E 012°16'6 6.5
2015-Jul-06 23:33N 56°08' E 012°26'7 6.9
2015-Jul-06 22:30N 56°05' E 012°37'7 7.6
2015-Jul-06 21:33N 55°58' E 012°43'7 7.4
2015-Jul-06 20:34N 55°52' E 012°50'0 0.1
2015-Jul-06 19:32N 55°52' E 012°50'0 0.0
2015-Jul-06 18:32N 55°52' E 012°50'0 0.0
2015-Jul-06 17:32N 55°52' E 012°50'0 0.0
2015-Jul-06 16:32N 55°52' E 012°50'0 0.0
2015-Jul-06 15:32N 55°52' E 012°50'0 0.0
2015-Jul-06 14:32N 55°52' E 012°50'0 0.0
2015-Jul-06 13:32N 55°52' E 012°50'0 0.0
2015-Jul-06 12:32N 55°52' E 012°50'0 0.0
2015-Jul-06 11:32N 55°52' E 012°50'0 0.0
2015-Jul-06 10:32N 55°52' E 012°50'0 0.0
2015-Jul-06 09:32N 55°52' E 012°50'0 0.0
2015-Jul-06 08:32N 55°52' E 012°50'0 0.0
2015-Jul-06 07:32N 55°52' E 012°50'0 0.0
2015-Jul-06 06:32N 55°52' E 012°50'0 0.0
2015-Jul-06 05:32N 55°52' E 012°50'0 0.0
2015-Jul-06 04:32N 55°52' E 012°50'0 0.0
2015-Jul-06 03:28N 55°52' E 012°50'0 0.0
2015-Jul-06 02:31N 55°52' E 012°50'0 0.0
2015-Jul-06 01:31N 55°52' E 012°50'0 0.0
2015-Jul-06 00:31N 55°52' E 012°50'0 0.0
2015-Jul-05 23:31N 55°52' E 012°50'0 0.0
2015-Jul-05 22:31N 55°52' E 012°50'0 0.0
2015-Jul-05 21:31N 55°52' E 012°50'0 0.0
2015-Jul-05 20:28N 55°52' E 012°50'0 0.0
2015-Jul-05 19:31N 55°52' E 012°50'0 0.0
2015-Jul-05 18:28N 55°52' E 012°50'0 0.0
2015-Jul-05 17:31N 55°52' E 012°50'0 0.0
2015-Jul-05 16:31N 55°52' E 012°50'0 0.0
2015-Jul-05 15:25N 55°52' E 012°50'0 0.0
2015-Jul-05 14:25N 55°52' E 012°50'0 0.0
2015-Jul-05 13:31N 55°52' E 012°50'0 0.0
2015-Jul-05 12:28N 55°52' E 012°50'0 0.0
2015-Jul-05 11:31N 55°52' E 012°50'0 0.0
2015-Jul-05 10:31N 55°52' E 012°50'0 0.0
2015-Jul-05 09:31N 55°52' E 012°50'0 0.0
2015-Jul-05 08:31N 55°52' E 012°50'0 0.0
2015-Jul-05 07:31N 55°52' E 012°50'0 0.0
2015-Jul-05 06:28N 55°52' E 012°50'0 0.0
2015-Jul-05 05:31N 55°52' E 012°50'0 0.0
2015-Jul-05 04:28N 55°52' E 012°50'0 0.0
2015-Jul-05 03:31N 55°52' E 012°50'0 0.0
2015-Jul-05 02:31N 55°52' E 012°50'0 0.0
2015-Jul-05 01:31N 55°52' E 012°50'0 0.0
2015-Jul-05 00:31N 55°52' E 012°50'0 0.0
2015-Jul-04 23:31N 55°52' E 012°50'0 0.0
2015-Jul-04 22:31N 55°52' E 012°50'0 0.0
2015-Jul-04 21:31N 55°52' E 012°50'0 0.0
2015-Jul-04 20:28N 55°52' E 012°50'0 0.0
2015-Jul-04 19:31N 55°52' E 012°50'0 0.0
2015-Jul-04 18:31N 55°52' E 012°50'0 0.0
2015-Jul-04 17:31N 55°52' E 012°50'0 0.0
2015-Jul-04 16:33N 55°52' E 012°50'0 0.0
2015-Jul-04 15:33N 55°52' E 012°50'0 0.0
2015-Jul-04 14:27N 55°52' E 012°50'0 0.0
2015-Jul-04 13:33N 55°52' E 012°50'0 0.0
2015-Jul-04 12:33N 55°52' E 012°50'0 0.0
2015-Jul-04 11:33N 55°52' E 012°50'0 0.0
2015-Jul-04 10:33N 55°52' E 012°50'0 0.0
2015-Jul-04 09:33N 55°52' E 012°50'0 0.0
2015-Jul-04 08:27N 55°52' E 012°50'0 0.0
2015-Jul-04 07:33N 55°52' E 012°50'0 0.0
2015-Jul-04 06:33N 55°52' E 012°50'0 0.0
2015-Jul-04 05:33N 55°52' E 012°50'0 0.0
2015-Jul-04 04:33N 55°52' E 012°50'0 0.0
2015-Jul-04 03:33N 55°52' E 012°50'0 0.0
2015-Jul-04 02:33N 55°52' E 012°50'2 1.7
2015-Jul-04 01:33N 55°53' E 012°47'9 8.6
2015-Jul-04 00:33N 55°45' E 012°42'8 8.2
2015-Jul-03 23:33N 55°36' E 012°42'8 7.9
2015-Jul-03 22:33N 55°28' E 012°43'8 8.0
2015-Jul-03 21:34N 55°20' E 012°41'7 7.3
2015-Jul-03 20:33N 55°16' E 012°52'8 7.9
2015-Jul-03 19:33N 55°16' E 013°06'8 8.1
2015-Jul-03 18:33N 55°16' E 013°20'8 7.9
2015-Jul-03 17:33N 55°15' E 013°34'8 7.8
2015-Jul-03 16:33N 55°15' E 013°48'22 7.0
2015-Jul-03 13:25N 55°21' E 014°25'15 7.9
2015-Jul-03 11:33N 55°31' E 014°43'10 8.2
2015-Jul-03 10:18N 55°38' E 014°57'15 8.4
2015-Jul-03 08:27N 55°49' E 015°17'7 7.9
2015-Jul-03 07:33N 55°54' E 015°26'22 7.4
2015-Jul-03 04:33N 56°06' E 015°59'8 7.9
2015-Jul-03 03:32N 56°13' E 016°06'24 8.1
2015-Jul-03 00:33N 56°36' E 016°20'8 7.7
2015-Jul-02 23:34N 56°43' E 016°27'8 7.6
2015-Jul-02 22:34N 56°50' E 016°32'8 7.9
2015-Jul-02 21:34N 56°57' E 016°37'8 7.8
2015-Jul-02 20:33N 57°04' E 016°43'8 7.9
2015-Jul-02 19:33N 57°12' E 016°45'8 7.8
2015-Jul-02 18:33N 57°20' E 016°49'8 7.9
2015-Jul-02 17:33N 57°27' E 016°54'8 7.7
2015-Jul-02 16:33N 57°35' E 016°58'  
Track history (hours):
 
Tides and Currents Weather Stations Pressure Air Temp Water Temp Dewpoint Dewpoint Depression Visibility Wind Speed Wind Dir Waves Ship Positions

Nathalie

Last reported at 2015-Jul-07 04:32 UTC. Time now 2015-Jul-07 19:48 UTC.
Position N 55°58' E 012°01'.

Length 64 m; draft 2.2 m.

Type: Cargo ship. MMSI: 230987660.

Date/timePositionNaut miles runAvg speedWind from/ knotsBaromVisibWave heightAir tempDewpointWater temp
2015-Jul-07 04:32N 55°58' E 012°01'15 3.6
2015-Jul-07 00:28N 56°10' E 012°16'6 6.5
2015-Jul-06 23:33N 56°08' E 012°26'7 6.9
2015-Jul-06 22:30N 56°05' E 012°37'7 7.6
2015-Jul-06 21:33N 55°58' E 012°43'7 7.4
2015-Jul-06 20:34N 55°52' E 012°50'0 0.1
2015-Jul-06 19:32N 55°52' E 012°50'0 0.0
2015-Jul-06 18:32N 55°52' E 012°50'0 0.0
2015-Jul-06 17:32N 55°52' E 012°50'0 0.0
2015-Jul-06 16:32N 55°52' E 012°50'0 0.0
2015-Jul-06 15:32N 55°52' E 012°50'0 0.0
2015-Jul-06 14:32N 55°52' E 012°50'0 0.0
2015-Jul-06 13:32N 55°52' E 012°50'0 0.0
2015-Jul-06 12:32N 55°52' E 012°50'0 0.0
2015-Jul-06 11:32N 55°52' E 012°50'0 0.0
2015-Jul-06 10:32N 55°52' E 012°50'0 0.0
2015-Jul-06 09:32N 55°52' E 012°50'0 0.0
2015-Jul-06 08:32N 55°52' E 012°50'0 0.0
2015-Jul-06 07:32N 55°52' E 012°50'0 0.0
2015-Jul-06 06:32N 55°52' E 012°50'0 0.0
2015-Jul-06 05:32N 55°52' E 012°50'0 0.0
2015-Jul-06 04:32N 55°52' E 012°50'0 0.0
2015-Jul-06 03:28N 55°52' E 012°50'0 0.0
2015-Jul-06 02:31N 55°52' E 012°50'0 0.0
2015-Jul-06 01:31N 55°52' E 012°50'0 0.0
2015-Jul-06 00:31N 55°52' E 012°50'0 0.0
2015-Jul-05 23:31N 55°52' E 012°50'0 0.0
2015-Jul-05 22:31N 55°52' E 012°50'0 0.0
2015-Jul-05 21:31N 55°52' E 012°50'0 0.0
2015-Jul-05 20:28N 55°52' E 012°50'0 0.0
2015-Jul-05 19:31N 55°52' E 012°50'0 0.0
2015-Jul-05 18:28N 55°52' E 012°50'0 0.0
2015-Jul-05 17:31N 55°52' E 012°50'0 0.0
2015-Jul-05 16:31N 55°52' E 012°50'0 0.0
2015-Jul-05 15:25N 55°52' E 012°50'0 0.0
2015-Jul-05 14:25N 55°52' E 012°50'0 0.0
2015-Jul-05 13:31N 55°52' E 012°50'0 0.0
2015-Jul-05 12:28N 55°52' E 012°50'0 0.0
2015-Jul-05 11:31N 55°52' E 012°50'0 0.0
2015-Jul-05 10:31N 55°52' E 012°50'0 0.0
2015-Jul-05 09:31N 55°52' E 012°50'0 0.0
2015-Jul-05 08:31N 55°52' E 012°50'0 0.0
2015-Jul-05 07:31N 55°52' E 012°50'0 0.0
2015-Jul-05 06:28N 55°52' E 012°50'0 0.0
2015-Jul-05 05:31N 55°52' E 012°50'0 0.0
2015-Jul-05 04:28N 55°52' E 012°50'0 0.0
2015-Jul-05 03:31N 55°52' E 012°50'0 0.0
2015-Jul-05 02:31N 55°52' E 012°50'0 0.0
2015-Jul-05 01:31N 55°52' E 012°50'0 0.0
2015-Jul-05 00:31N 55°52' E 012°50'0 0.0
2015-Jul-04 23:31N 55°52' E 012°50'0 0.0
2015-Jul-04 22:31N 55°52' E 012°50'0 0.0
2015-Jul-04 21:31N 55°52' E 012°50'0 0.0
2015-Jul-04 20:28N 55°52' E 012°50'0 0.0
2015-Jul-04 19:31N 55°52' E 012°50'0 0.0
2015-Jul-04 18:31N 55°52' E 012°50'0 0.0
2015-Jul-04 17:31N 55°52' E 012°50'0 0.0
2015-Jul-04 16:33N 55°52' E 012°50'0 0.0
2015-Jul-04 15:33N 55°52' E 012°50'0 0.0
2015-Jul-04 14:27N 55°52' E 012°50'0 0.0
2015-Jul-04 13:33N 55°52' E 012°50'0 0.0
2015-Jul-04 12:33N 55°52' E 012°50'0 0.0
2015-Jul-04 11:33N 55°52' E 012°50'0 0.0
2015-Jul-04 10:33N 55°52' E 012°50'0 0.0
2015-Jul-04 09:33N 55°52' E 012°50'0 0.0
2015-Jul-04 08:27N 55°52' E 012°50'0 0.0
2015-Jul-04 07:33N 55°52' E 012°50'0 0.0
2015-Jul-04 06:33N 55°52' E 012°50'0 0.0
2015-Jul-04 05:33N 55°52' E 012°50'0 0.0
2015-Jul-04 04:33N 55°52' E 012°50'0 0.0
2015-Jul-04 03:33N 55°52' E 012°50'0 0.0
2015-Jul-04 02:33N 55°52' E 012°50'2 1.7
2015-Jul-04 01:33N 55°53' E 012°47'9 8.6
2015-Jul-04 00:33N 55°45' E 012°42'8 8.2
2015-Jul-03 23:33N 55°36' E 012°42'8 7.9
2015-Jul-03 22:33N 55°28' E 012°43'8 8.0
2015-Jul-03 21:34N 55°20' E 012°41'7 7.3
2015-Jul-03 20:33N 55°16' E 012°52'8 7.9
2015-Jul-03 19:33N 55°16' E 013°06'8 8.1
2015-Jul-03 18:33N 55°16' E 013°20'8 7.9
2015-Jul-03 17:33N 55°15' E 013°34'8 7.8
2015-Jul-03 16:33N 55°15' E 013°48'22 7.0
2015-Jul-03 13:25N 55°21' E 014°25'15 7.9
2015-Jul-03 11:33N 55°31' E 014°43'10 8.2
2015-Jul-03 10:18N 55°38' E 014°57'15 8.4
2015-Jul-03 08:27N 55°49' E 015°17'7 7.9
2015-Jul-03 07:33N 55°54' E 015°26'22 7.4
2015-Jul-03 04:33N 56°06' E 015°59'8 7.9
2015-Jul-03 03:32N 56°13' E 016°06'24 8.1
2015-Jul-03 00:33N 56°36' E 016°20'8 7.7
2015-Jul-02 23:34N 56°43' E 016°27'8 7.6
2015-Jul-02 22:34N 56°50' E 016°32'8 7.9
2015-Jul-02 21:34N 56°57' E 016°37'8 7.8
2015-Jul-02 20:33N 57°04' E 016°43'8 7.9
2015-Jul-02 19:33N 57°12' E 016°45'8 7.8
2015-Jul-02 18:33N 57°20' E 016°49'8 7.9
2015-Jul-02 17:33N 57°27' E 016°54'8 7.7
2015-Jul-02 16:33N 57°35' E 016°58'  

Dump ship's entire track history